Time;durP1;ratioP1;P1;durP2;ratioP2;P2;SDS_P1;SDS_P2;PMS_P1;PMS_P2;Temp;Humidity;BMP_temperature;BMP_pressure;BME280_temperature;BME280_humidity;BME280_pressure;Samples;Min_cycle;Max_cycle;Signal;HPM_P1;HPM_P2
2022/08/29 00:00:18;;;;;;;;;;;;;;;21.71;28.68;97809.59;5017138;28;1034;-78
2022/08/29 00:02:44;;;;;;;;;;;;;;;22.02;28.12;97812.69;5017137;28;950;-78
2022/08/29 00:05:09;;;;;;;;;;;;;;;21.95;27.91;97802.38;5017446;28;913;-78
2022/08/29 00:07:35;;;;;;;;;;;;;;;21.78;28.19;97807.34;5016368;28;1499;-78
2022/08/29 00:10:01;;;;;;;;;;;;;;;21.39;28.83;97793.53;5017351;28;925;-78
2022/08/29 00:12:26;;;;;;;;;;;;;;;21.66;28.71;97801.66;5017173;28;1906;-78
2022/08/29 00:14:52;;;;;;;;;;;;;;;21.81;28.08;97803.63;5017127;28;929;-77
2022/08/29 00:17:17;;;;;;;;;;;;;;;21.62;28.64;97801.78;5016200;28;1534;-78
2022/08/29 00:19:42;;;;;;;;;;;;;;;21.84;28.15;97796.25;4999864;28;935;-79
2022/08/29 00:22:08;;;;;;;;;;;;;;;21.75;28.53;97802.56;5016909;28;861;-79
2022/08/29 00:24:33;;;;;;;;;;;;;;;22.07;27.83;97806.44;5017048;28;807;-78
2022/08/29 00:27:00;;;;;;;;;;;;;;;21.73;28.33;97807.91;5016969;28;926;-78
2022/08/29 00:29:26;;;;;;;;;;;;;;;21.98;27.84;97806.34;5016154;28;1821;-79
2022/08/29 00:31:51;;;;;;;;;;;;;;;21.79;28.42;97808.94;5016990;28;907;-78
2022/08/29 00:34:17;;;;;;;;;;;;;;;21.78;28.11;97810.19;5016633;28;1983;-78
2022/08/29 00:36:43;;;;;;;;;;;;;;;21.69;28.47;97812.09;5016920;28;977;-78
2022/08/29 00:39:08;;;;;;;;;;;;;;;21.72;28.12;97814.81;5013219;28;1609;-78
2022/08/29 00:41:33;;;;;;;;;;;;;;;21.81;28.04;97820.63;5016173;28;1547;-78
2022/08/29 00:43:59;;;;;;;;;;;;;;;21.89;28.22;97809.06;5016592;28;894;-78
2022/08/29 00:46:40;;;;;;;;;;;;;;;21.79;28.38;97817.41;5016817;28;938;-77
2022/08/29 00:49:11;;;;;;;;;;;;;;;21.84;28.08;97814.03;5015132;28;1542;-78
2022/08/29 00:51:36;;;;;;;;;;;;;;;21.85;28.05;97812.00;4999115;28;907;-78
2022/08/29 00:54:02;;;;;;;;;;;;;;;21.64;28.49;97809.81;5016437;28;1979;-78
2022/08/29 00:56:28;;;;;;;;;;;;;;;21.73;28.29;97812.78;4998793;28;889;-78
2022/08/29 00:59:05;;;;;;;;;;;;;;;21.79;28.51;97806.09;4998843;28;1468;-77
2022/08/29 01:01:31;;;;;;;;;;;;;;;21.72;28.43;97811.97;4997444;28;1542;-78
2022/08/29 01:03:56;;;;;;;;;;;;;;;21.79;28.12;97805.31;5016241;28;934;-78
2022/08/29 01:06:22;;;;;;;;;;;;;;;21.74;28.20;97812.31;4966247;28;947;-78
2022/08/29 01:08:47;;;;;;;;;;;;;;;21.72;28.26;97800.66;5016418;28;954;-78
2022/08/29 01:13:57;;;;;;;;;;;;;;;21.74;28.42;97812.31;5000319;28;1981;-77
2022/08/29 01:16:23;;;;;;;;;;;;;;;21.83;27.99;97806.00;5016826;28;890;-78
2022/08/29 01:18:50;;;;;;;;;;;;;;;21.61;28.42;97805.84;4966022;28;969;-78
2022/08/29 01:21:18;;;;;;;;;;;;;;;21.66;28.27;97808.13;5016473;28;969;-78
2022/08/29 01:23:53;;;;;;;;;;;;;;;21.83;27.96;97806.00;5015693;28;1535;-78
2022/08/29 01:26:19;;;;;;;;;;;;;;;21.74;28.20;97803.03;5016321;28;875;-79
2022/08/29 01:28:49;;;;;;;;;;;;;;;21.57;28.78;97796.66;5016398;28;972;-78
2022/08/29 01:31:16;;;;;;;;;;;;;;;21.55;28.46;97796.31;4999099;28;859;-78
2022/08/29 01:33:46;;;;;;;;;;;;;;;21.95;27.86;97796.69;5015448;28;1903;-78
2022/08/29 01:36:15;;;;;;;;;;;;;;;21.99;27.79;97802.28;5016424;28;931;-78
2022/08/29 01:38:40;;;;;;;;;;;;;;;21.87;27.97;97788.91;4998878;28;995;-78
2022/08/29 01:41:06;;;;;;;;;;;;;;;21.73;28.32;97790.13;5019508;28;970;-77
2022/08/29 01:43:36;;;;;;;;;;;;;;;21.84;27.92;97791.38;5019052;28;1476;-78
2022/08/29 01:46:02;;;;;;;;;;;;;;;22.00;27.75;97793.31;5019632;28;875;-78
2022/08/29 01:48:27;;;;;;;;;;;;;;;21.94;28.04;97783.00;5019844;28;942;-78
2022/08/29 01:50:52;;;;;;;;;;;;;;;21.75;28.45;97793.28;5019773;28;899;-78
2022/08/29 01:53:18;;;;;;;;;;;;;;;21.59;28.58;97797.00;5015321;28;1969;-78
2022/08/29 01:55:43;;;;;;;;;;;;;;;21.70;28.41;97788.97;5019523;28;896;-78
2022/08/29 01:58:09;;;;;;;;;;;;;;;21.64;28.23;97793.59;4968751;28;977;-78
2022/08/29 02:00:34;;;;;;;;;;;;;;;21.62;28.57;97790.44;5019871;28;1089;-78
2022/08/29 02:03:00;;;;;;;;;;;;;;;21.74;28.36;97791.69;5015767;28;1472;-78
2022/08/29 02:05:26;;;;;;;;;;;;;;;21.89;27.93;97792.06;5007096;28;1362;-77
2022/08/29 02:07:52;;;;;;;;;;;;;;;21.90;27.88;97796.47;5019440;28;978;-78
2022/08/29 02:10:18;;;;;;;;;;;;;;;21.71;28.12;97782.09;5019486;28;1005;-78
2022/08/29 02:12:43;;;;;;;;;;;;;;;21.99;27.92;97780.38;5018762;28;1906;-78
2022/08/29 02:15:09;;;;;;;;;;;;;;;22.34;28.68;97783.34;5019508;28;983;-78
2022/08/29 02:17:35;;;;;;;;;;;;;;;22.20;28.97;97784.59;5019098;28;918;-77
2022/08/29 02:20:01;;;;;;;;;;;;;;;22.18;29.09;97778.63;5019696;28;874;-78
2022/08/29 02:22:27;;;;;;;;;;;;;;;22.18;28.88;97778.63;4968594;28;984;-78
2022/08/29 02:24:52;;;;;;;;;;;;;;;21.98;29.20;97789.34;5018464;28;1451;-78
2022/08/29 02:27:18;;;;;;;;;;;;;;;22.00;29.10;97786.84;5018990;28;935;-78
2022/08/29 02:29:43;;;;;;;;;;;;;;;22.03;28.71;97785.97;5019434;28;977;-78
2022/08/29 02:32:10;;;;;;;;;;;;;;;22.02;28.71;97787.19;5019110;28;1974;-79
2022/08/29 02:34:36;;;;;;;;;;;;;;;22.01;28.80;97788.44;4985332;28;1543;-79
2022/08/29 02:37:02;;;;;;;;;;;;;;;21.79;29.22;97793.97;4999581;28;907;-79
2022/08/29 02:39:27;;;;;;;;;;;;;;;21.85;28.96;97786.50;5011941;28;1482;-78
2022/08/29 02:41:53;;;;;;;;;;;;;;;21.82;29.12;97788.22;5002417;28;1490;-78
2022/08/29 02:44:19;;;;;;;;;;;;;;;22.00;28.78;97792.50;4999072;28;936;-78
2022/08/29 02:46:44;;;;;;;;;;;;;;;21.96;28.68;97798.28;4999639;28;991;-78
2022/08/29 02:49:10;;;;;;;;;;;;;;;21.72;28.88;97783.66;4998965;28;952;-78
2022/08/29 02:51:35;;;;;;;;;;;;;;;21.90;28.48;97793.66;5010317;28;1558;-79
2022/08/29 02:54:01;;;;;;;;;;;;;;;21.90;28.57;97790.81;4999507;28;1917;-78
2022/08/29 02:56:26;;;;;;;;;;;;;;;21.58;29.05;97789.75;5018303;28;950;-78
2022/08/29 02:58:52;;;;;;;;;;;;;;;21.73;29.13;97795.78;5018482;28;926;-78
2022/08/29 03:01:18;;;;;;;;;;;;;;;21.83;28.55;97803.94;5017920;28;1472;-78
2022/08/29 03:03:44;;;;;;;;;;;;;;;21.92;28.59;97796.84;5018395;28;916;-78
2022/08/29 03:06:09;;;;;;;;;;;;;;;21.97;28.54;97804.78;5018137;28;877;-78
2022/08/29 03:08:35;;;;;;;;;;;;;;;21.76;28.92;97804.19;5018053;28;985;-78
2022/08/29 03:11:01;;;;;;;;;;;;;;;21.77;28.51;97814.25;5017398;28;1301;-78
2022/08/29 03:13:26;;;;;;;;;;;;;;;21.94;28.56;97811.31;5017988;28;1914;-78
2022/08/29 03:15:52;;;;;;;;;;;;;;;21.91;28.46;97818.69;5018824;28;936;-77
2022/08/29 03:18:17;;;;;;;;;;;;;;;22.00;28.21;97821.63;5017979;28;916;-77
2022/08/29 03:20:43;;;;;;;;;;;;;;;21.67;28.92;97821.03;4994958;28;1546;-79
2022/08/29 03:23:09;;;;;;;;;;;;;;;21.93;28.45;97826.75;4997002;28;968;-79
2022/08/29 03:25:34;;;;;;;;;;;;;;;21.87;28.46;97820.84;4981136;28;1650;-78
2022/08/29 03:28:00;;;;;;;;;;;;;;;21.94;28.46;97828.31;4998681;28;933;-77
2022/08/29 03:30:26;;;;;;;;;;;;;;;21.67;28.98;97821.03;4997211;28;1557;-78
2022/08/29 03:32:51;;;;;;;;;;;;;;;21.66;28.84;97813.78;4997768;28;1918;-78
2022/08/29 03:35:18;;;;;;;;;;;;;;;21.96;28.17;97814.50;4998454;28;1018;-78
2022/08/29 03:37:44;;;;;;;;;;;;;;;21.77;28.58;97819.13;4999079;28;1410;-77
2022/08/29 03:40:09;;;;;;;;;;;;;;;21.76;28.80;97820.34;5017666;28;849;-78
2022/08/29 03:42:35;;;;;;;;;;;;;;;21.84;28.45;97819.69;5017160;28;1555;-77
2022/08/29 03:45:07;;;;;;;;;;;;;;;21.93;28.19;97824.69;5017879;28;921;-79
2022/08/29 03:47:32;;;;;;;;;;;;;;;21.89;28.35;97820.38;5016874;28;1486;-78
2022/08/29 03:49:57;;;;;;;;;;;;;;;21.86;28.50;97830.56;5017766;28;915;-79
2022/08/29 03:52:23;;;;;;;;;;;;;;;21.61;28.60;97834.16;5017396;28;1902;-77
2022/08/29 03:54:48;;;;;;;;;;;;;;;21.66;28.56;97842.09;5016842;28;1476;-78
2022/08/29 03:57:14;;;;;;;;;;;;;;;21.93;28.38;97840.91;5017480;28;923;-77
2022/08/29 03:59:39;;;;;;;;;;;;;;;21.87;28.57;97834.22;5017392;28;1220;-78
2022/08/29 04:02:05;;;;;;;;;;;;;;;21.89;28.19;97837.38;5017299;28;939;-78
2022/08/29 04:07:14;;;;;;;;;;;;;;;21.96;28.46;97831.50;5016758;28;1036;-78
2022/08/29 04:09:40;;;;;;;;;;;;;;;21.78;28.60;97835.66;5017327;28;920;-78
2022/08/29 04:12:07;;;;;;;;;;;;;;;21.78;28.50;97835.66;4956212;29;1977;-79
2022/08/29 04:14:33;;;;;;;;;;;;;;;21.74;28.74;97832.13;4956647;29;924;-78
2022/08/29 04:17:00;;;;;;;;;;;;;;;21.93;28.32;97844.53;4956327;29;1057;-78
2022/08/29 04:19:25;;;;;;;;;;;;;;;21.94;28.44;97842.50;4956503;29;1012;-78
2022/08/29 04:21:50;;;;;;;;;;;;;;;21.78;28.47;97844.16;4956365;29;968;-78
2022/08/29 04:24:18;;;;;;;;;;;;;;;21.90;28.56;97851.09;4956223;29;960;-78
2022/08/29 04:26:43;;;;;;;;;;;;;;;21.84;28.83;97841.56;4955954;29;1005;-79
2022/08/29 04:29:09;;;;;;;;;;;;;;;21.82;28.60;97847.69;4956210;29;918;-78
2022/08/29 04:31:35;;;;;;;;;;;;;;;21.98;28.67;97852.47;4956062;29;1005;-77
2022/08/29 04:34:01;;;;;;;;;;;;;;;21.76;28.75;97852.31;4956275;29;1902;-77
2022/08/29 04:36:27;;;;;;;;;;;;;;;21.72;29.00;97857.28;4918141;29;1129;-78
2022/08/29 04:38:53;;;;;;;;;;;;;;;21.72;28.83;97857.28;4917743;29;923;-77
2022/08/29 04:41:19;;;;;;;;;;;;;;;21.83;28.82;97854.94;4918007;29;985;-78
2022/08/29 04:43:44;;;;;;;;;;;;;;;21.75;28.81;97850.72;4962313;28;895;-78
2022/08/29 04:46:10;;;;;;;;;;;;;;;21.88;28.80;97855.63;4975426;28;988;-77
2022/08/29 04:48:35;;;;;;;;;;;;;;;22.09;28.50;97852.13;4975440;28;883;-77
2022/08/29 04:51:01;;;;;;;;;;;;;;;21.86;28.54;97850.41;4975314;28;1122;-78
2022/08/29 04:53:26;;;;;;;;;;;;;;;21.84;28.59;97856.50;4975200;28;1966;-77
2022/08/29 04:56:02;;;;;;;;;;;;;;;21.87;28.91;97851.22;4975023;28;1079;-78
2022/08/29 04:58:27;;;;;;;;;;;;;;;21.77;28.74;97853.91;4975170;28;915;-78
2022/08/29 05:00:54;;;;;;;;;;;;;;;21.50;29.35;97851.47;4975133;28;1207;-79
2022/08/29 05:03:19;;;;;;;;;;;;;;;21.94;28.55;97853.81;4975548;28;991;-78
2022/08/29 05:05:45;;;;;;;;;;;;;;;21.77;28.85;97865.25;4975079;28;973;-78
2022/08/29 05:08:10;;;;;;;;;;;;;;;22.04;28.76;97849.88;5008719;28;978;-78
2022/08/29 05:10:36;;;;;;;;;;;;;;;22.00;28.76;97854.84;5016628;28;911;-78
2022/08/29 05:13:01;;;;;;;;;;;;;;;21.99;28.89;97858.94;5016128;28;1894;-78
2022/08/29 05:15:27;;;;;;;;;;;;;;;21.85;28.91;97855.28;5019009;28;951;-78
2022/08/29 05:17:53;;;;;;;;;;;;;;;21.88;28.90;97858.47;5020446;28;940;-78
2022/08/29 05:20:18;;;;;;;;;;;;;;;21.96;28.98;97859.81;5020651;28;932;-78
2022/08/29 05:22:44;;;;;;;;;;;;;;;21.88;29.29;97858.47;5019828;28;956;-78
2022/08/29 05:25:10;;;;;;;;;;;;;;;21.96;28.97;97865.47;5019849;28;887;-77
2022/08/29 05:27:35;;;;;;;;;;;;;;;22.07;28.96;97854.63;5019956;28;926;-78
2022/08/29 05:30:02;;;;;;;;;;;;;;;21.84;29.03;97865.00;5019805;28;1091;-78
2022/08/29 05:32:28;;;;;;;;;;;;;;;21.92;28.99;97868.44;5019794;28;1956;-79
2022/08/29 05:34:54;;;;;;;;;;;;;;;21.82;29.19;97873.19;5020195;28;1053;-77
2022/08/29 05:37:20;;;;;;;;;;;;;;;21.87;29.24;97873.88;4969325;28;1018;-78
2022/08/29 05:39:46;;;;;;;;;;;;;;;21.92;29.32;97864.81;4959010;29;1076;-79
2022/08/29 05:42:11;;;;;;;;;;;;;;;22.03;29.08;97868.13;4959144;29;1045;-79
2022/08/29 05:44:37;;;;;;;;;;;;;;;22.22;29.08;97867.13;4958891;29;1014;-78
2022/08/29 05:47:03;;;;;;;;;;;;;;;21.98;29.14;97868.69;4959035;29;955;-78
2022/08/29 05:49:29;;;;;;;;;;;;;;;22.14;29.33;97865.78;4958861;29;1038;-79
2022/08/29 05:51:55;;;;;;;;;;;;;;;22.11;29.27;97872.34;4959233;29;887;-78
2022/08/29 05:54:20;;;;;;;;;;;;;;;21.95;29.24;97875.22;4958942;29;1988;-79
2022/08/29 05:56:46;;;;;;;;;;;;;;;21.96;29.31;97871.94;4959021;29;1035;-78
2022/08/29 05:59:12;;;;;;;;;;;;;;;21.89;29.76;97871.38;4958739;29;1186;-78
2022/08/29 06:01:38;;;;;;;;;;;;;;;22.04;29.22;97875.38;4959105;29;986;-79
2022/08/29 06:04:03;;;;;;;;;;;;;;;21.80;29.64;97875.66;4958985;29;1069;-78
2022/08/29 06:06:29;;;;;;;;;;;;;;;21.93;29.84;97877.72;4958977;29;897;-78
2022/08/29 06:08:54;;;;;;;;;;;;;;;21.98;29.51;97874.34;4958881;29;982;-78
2022/08/29 06:11:24;;;;;;;;;;;;;;;22.02;29.39;97870.16;4987242;28;962;-78
2022/08/29 06:13:49;;;;;;;;;;;;;;;21.79;30.11;97871.22;4997027;28;1989;-78
2022/08/29 06:16:16;;;;;;;;;;;;;;;22.01;29.59;97867.75;4997418;28;956;-78
2022/08/29 06:18:41;;;;;;;;;;;;;;;21.92;29.79;97867.66;4997390;28;995;-79
2022/08/29 06:21:07;;;;;;;;;;;;;;;22.09;29.37;97875.59;4997118;28;970;-78
2022/08/29 06:23:32;;;;;;;;;;;;;;;22.04;29.55;97873.31;4997144;28;942;-79
2022/08/29 06:25:58;;;;;;;;;;;;;;;22.19;29.32;97873.72;4964453;28;1003;-79
2022/08/29 06:28:26;;;;;;;;;;;;;;;22.11;29.50;97878.00;4996992;28;985;-78
2022/08/29 06:30:54;;;;;;;;;;;;;;;22.11;29.53;97872.34;4964655;28;1033;-78
2022/08/29 06:33:19;;;;;;;;;;;;;;;22.24;29.25;97867.50;4996950;28;1926;-78
2022/08/29 06:35:45;;;;;;;;;;;;;;;22.04;29.69;97873.31;4977248;28;1010;-79
2022/08/29 06:38:10;;;;;;;;;;;;;;;22.06;29.81;97881.38;4977273;28;907;-78
2022/08/29 06:40:36;;;;;;;;;;;;;;;22.15;29.41;97878.69;4968968;28;1084;-78
2022/08/29 06:43:01;;;;;;;;;;;;;;;21.75;30.42;97879.03;4992929;28;916;-77
2022/08/29 06:45:27;;;;;;;;;;;;;;;22.04;30.16;97869.69;4996151;28;1723;-77
2022/08/29 06:47:52;;;;;;;;;;;;;;;21.92;30.45;97870.50;4996415;28;1877;-78
2022/08/29 06:50:17;;;;;;;;;;;;;;;22.20;29.88;97880.97;4996214;28;1826;-78
2022/08/29 06:52:43;;;;;;;;;;;;;;;22.12;30.07;97873.91;5004850;28;2007;-79
2022/08/29 06:55:11;;;;;;;;;;;;;;;22.06;30.53;97876.50;4996938;28;1810;-78
2022/08/29 06:57:41;;;;;;;;;;;;;;;22.49;29.71;97882.91;4996858;28;1518;-78
2022/08/29 07:00:09;;;;;;;;;;;;;;;21.98;30.72;97880.00;4996922;28;1101;-80
2022/08/29 07:02:35;;;;;;;;;;;;;;;22.41;30.04;97887.22;4996928;28;1021;-78
2022/08/29 07:05:00;;;;;;;;;;;;;;;22.68;29.68;97881.88;4958290;28;1579;-79
2022/08/29 07:07:26;;;;;;;;;;;;;;;22.28;30.50;97882.34;4900764;29;1001;-78
2022/08/29 07:09:51;;;;;;;;;;;;;;;22.59;30.31;97878.94;4900615;29;1154;-79
2022/08/29 07:12:17;;;;;;;;;;;;;;;22.63;29.90;97879.59;4900344;29;1911;-78
2022/08/29 07:14:42;;;;;;;;;;;;;;;22.51;30.44;97883.25;4901055;29;906;-78
2022/08/29 07:17:08;;;;;;;;;;;;;;;22.75;30.00;97875.97;4900530;29;992;-78
2022/08/29 07:19:33;;;;;;;;;;;;;;;22.97;29.55;97878.13;4900680;29;1100;-78
2022/08/29 07:21:59;;;;;;;;;;;;;;;22.95;29.76;97883.44;4900815;29;989;-78
2022/08/29 07:24:24;;;;;;;;;;;;;;;22.87;29.73;97883.66;4883206;29;799;-78
2022/08/29 07:26:50;;;;;;;;;;;;;;;22.97;29.81;97886.63;4882097;29;1056;-79
2022/08/29 07:29:16;;;;;;;;;;;;;;;22.97;29.91;97886.63;4882032;29;1150;-79
2022/08/29 07:31:42;;;;;;;;;;;;;;;22.97;29.71;97883.78;4882120;29;1497;-79
2022/08/29 07:34:08;;;;;;;;;;;;;;;22.90;30.09;97881.19;4881999;29;1903;-79
2022/08/29 07:36:33;;;;;;;;;;;;;;;22.79;30.20;97882.28;4903881;29;1614;-80
2022/08/29 07:38:59;;;;;;;;;;;;;;;23.01;30.18;97882.41;4894993;29;1094;-79
2022/08/29 07:41:24;;;;;;;;;;;;;;;22.78;30.17;97891.28;4900157;29;1005;-78
2022/08/29 07:43:50;;;;;;;;;;;;;;;23.04;29.71;97886.38;4900332;29;970;-78
2022/08/29 07:46:16;;;;;;;;;;;;;;;22.87;29.87;97892.16;4900466;29;894;-79
2022/08/29 07:48:42;;;;;;;;;;;;;;;22.74;30.10;97894.25;4900023;29;974;-79
2022/08/29 07:51:08;;;;;;;;;;;;;;;22.91;30.07;97894.13;4899958;29;1203;-79
2022/08/29 07:53:33;;;;;;;;;;;;;;;22.85;30.34;97897.53;4900133;29;1907;-79
2022/08/29 07:55:59;;;;;;;;;;;;;;;23.10;29.83;97898.72;4917199;29;1447;-80
2022/08/29 07:58:24;;;;;;;;;;;;;;;23.09;30.06;97897.16;4918908;29;1460;-81
2022/08/29 08:00:49;;;;;;;;;;;;;;;23.22;29.99;97892.25;4907810;29;1779;-79
2022/08/29 08:03:15;;;;;;;;;;;;;;;23.25;29.64;97896.19;4913258;29;1880;-79
2022/08/29 08:05:40;;;;;;;;;;;;;;;23.31;29.81;97900.84;4899071;29;1964;-80
2022/08/29 08:08:08;;;;;;;;;;;;;;;23.11;30.09;97897.50;4898754;29;1839;-79
2022/08/29 08:10:34;;;;;;;;;;;;;;;23.18;29.80;97900.09;4899703;29;877;-80
2022/08/29 08:12:59;;;;;;;;;;;;;;;23.34;29.82;97899.91;4882750;29;1895;-79
2022/08/29 08:15:25;;;;;;;;;;;;;;;23.37;29.85;97893.31;4845154;29;1776;-79
2022/08/29 08:17:50;;;;;;;;;;;;;;;22.97;30.38;97903.66;4882418;29;1818;-80
2022/08/29 08:20:15;;;;;;;;;;;;;;;23.36;29.81;97897.44;4877131;29;1539;-79
2022/08/29 08:22:41;;;;;;;;;;;;;;;23.26;30.15;97892.91;4861412;29;1934;-79
2022/08/29 08:25:06;;;;;;;;;;;;;;;23.57;29.42;97907.22;4868734;29;1605;-79
2022/08/29 08:27:32;;;;;;;;;;;;;;;23.54;29.58;97904.50;4864696;29;2105;-79
2022/08/29 08:29:58;;;;;;;;;;;;;;;23.24;30.30;97895.41;4867749;29;1842;-78
2022/08/29 08:32:23;;;;;;;;;;;;;;;23.43;29.73;97906.94;4855750;29;2143;-79
2022/08/29 08:34:49;;;;;;;;;;;;;;;23.39;29.94;97907.84;4844036;29;1000;-78
2022/08/29 08:37:14;;;;;;;;;;;;;;;23.40;29.81;97900.91;4843418;29;1658;-78
2022/08/29 08:39:40;;;;;;;;;;;;;;;23.68;29.53;97904.03;4875332;29;1071;-78
2022/08/29 08:42:17;;;;;;;;;;;;;;;23.46;29.91;97900.31;4880511;29;1170;-77
2022/08/29 08:44:50;;;;;;;;;;;;;;;23.51;30.74;97894.84;4910811;29;842;-78
2022/08/29 08:47:17;;;;;;;;;;;;;;;23.24;30.98;97901.06;4926799;29;1807;-80
2022/08/29 08:49:44;;;;;;;;;;;;;;;23.31;30.58;97889.50;4900659;29;954;-78
2022/08/29 08:52:12;;;;;;;;;;;;;;;23.38;31.10;97900.59;4865079;29;1007;-80
2022/08/29 08:55:00;;;;;;;;;;;;;;;23.62;30.85;97898.13;4865951;29;1985;-79
2022/08/29 08:57:28;;;;;;;;;;;;;;;23.18;31.65;97900.09;4859027;29;997;-81
2022/08/29 08:59:55;;;;;;;;;;;;;;;23.19;31.45;97898.81;4853658;29;1049;-80
2022/08/29 09:02:39;;;;;;;;;;;;;;;23.03;31.28;97896.94;4849252;29;1012;-80
2022/08/29 09:05:18;;;;;;;;;;;;;;;23.21;30.81;97887.81;4883991;29;1033;-80
2022/08/29 09:08:01;;;;;;;;;;;;;;;23.05;31.21;97887.97;4884119;29;1062;-81
2022/08/29 09:10:30;;;;;;;;;;;;;;;22.89;31.14;97888.91;4884098;29;958;-80
2022/08/29 09:13:01;;;;;;;;;;;;;;;22.97;31.00;97889.47;4883949;29;1970;-80
2022/08/29 09:15:47;;;;;;;;;;;;;;;22.93;30.93;97891.63;4883904;29;931;-81
2022/08/29 09:18:12;;;;;;;;;;;;;;;22.99;30.54;97889.78;4883643;29;947;-81
2022/08/29 09:20:38;;;;;;;;;;;;;;;22.83;30.67;97882.97;4892327;29;963;-80
2022/08/29 09:23:18;;;;;;;;;;;;;;;22.88;30.77;97878.81;4911343;29;869;-80
2022/08/29 09:25:44;;;;;;;;;;;;;;;22.94;30.64;97887.53;4921641;29;987;-80
2022/08/29 09:28:09;;;;;;;;;;;;;;;22.88;30.39;97882.44;4921403;29;976;-80
2022/08/29 09:30:35;;;;;;;;;;;;;;;22.85;30.53;97886.16;4921586;29;911;-81
2022/08/29 09:33:03;;;;;;;;;;;;;;;22.71;30.72;97892.31;4922888;29;1978;-80
2022/08/29 09:35:42;;;;;;;;;;;;;;;22.91;30.47;97891.28;4959569;29;1009;-80
2022/08/29 09:38:09;;;;;;;;;;;;;;;22.81;30.46;97879.81;4959213;29;907;-81
2022/08/29 09:40:41;;;;;;;;;;;;;;;22.96;30.11;97890.72;4943587;29;1056;-80
2022/08/29 09:43:07;;;;;;;;;;;;;;;22.94;30.17;97893.22;4959313;29;944;-77
2022/08/29 09:45:32;;;;;;;;;;;;;;;22.87;30.20;97883.66;4959562;29;1023;-81
2022/08/29 09:48:13;;;;;;;;;;;;;;;22.95;30.00;97889.13;4901870;29;993;-80
2022/08/29 09:50:39;;;;;;;;;;;;;;;22.87;30.30;97895.00;4917918;29;945;-81
2022/08/29 09:53:04;;;;;;;;;;;;;;;22.75;30.36;97890.16;4898718;29;1978;-80
2022/08/29 09:55:31;;;;;;;;;;;;;;;22.53;30.44;97897.75;4883285;29;948;-80
2022/08/29 09:58:01;;;;;;;;;;;;;;;22.72;30.09;97905.22;4864367;29;951;-80
2022/08/29 10:00:28;;;;;;;;;;;;;;;22.70;30.35;97884.25;4864449;29;1215;-80
2022/08/29 10:02:55;;;;;;;;;;;;;;;22.75;30.12;97893.00;4865439;29;1012;-80
2022/08/29 10:05:33;;;;;;;;;;;;;;;22.72;30.21;97888.22;4867321;29;934;-80
2022/08/29 10:07:59;;;;;;;;;;;;;;;22.63;30.26;97896.63;4882810;29;998;-80
2022/08/29 10:10:29;;;;;;;;;;;;;;;22.62;30.62;97895.03;4882831;29;943;-80
2022/08/29 10:13:14;;;;;;;;;;;;;;;22.57;30.45;97889.94;4882938;29;1907;-80
2022/08/29 10:15:53;;;;;;;;;;;;;;;22.73;30.40;97884.13;4890879;29;1838;-80
2022/08/29 10:18:23;;;;;;;;;;;;;;;22.84;30.05;97890.22;4890203;29;895;-81
2022/08/29 10:20:55;;;;;;;;;;;;;;;22.57;30.33;97892.75;4920569;29;996;-81
2022/08/29 10:23:27;;;;;;;;;;;;;;;22.72;30.18;97893.88;4912294;29;966;-80
2022/08/29 10:25:52;;;;;;;;;;;;;;;22.86;30.12;97899.09;4958473;29;921;-80
2022/08/29 10:28:21;;;;;;;;;;;;;;;22.88;29.78;97895.81;4967874;28;923;-80
2022/08/29 10:30:53;;;;;;;;;;;;;;;22.82;29.85;97895.59;4999339;28;959;-81
2022/08/29 10:33:21;;;;;;;;;;;;;;;22.73;30.04;97895.47;4999407;28;1914;-81
2022/08/29 10:36:05;;;;;;;;;;;;;;;22.82;30.15;97898.41;4998767;28;987;-80
2022/08/29 10:38:34;;;;;;;;;;;;;;;22.81;30.22;97899.69;4999105;28;931;-81
2022/08/29 10:41:16;;;;;;;;;;;;;;;22.74;30.06;97914.09;4999002;28;924;-80
2022/08/29 10:43:45;;;;;;;;;;;;;;;22.70;30.08;97913.41;4998441;28;945;-80
2022/08/29 10:46:11;;;;;;;;;;;;;;;22.91;29.92;97899.81;4998103;28;962;-81
2022/08/29 10:48:38;;;;;;;;;;;;;;;22.83;30.12;97904.88;4999309;28;1018;-80
2022/08/29 10:51:03;;;;;;;;;;;;;;;22.87;30.19;97897.84;4998297;28;842;-80
2022/08/29 10:53:36;;;;;;;;;;;;;;;22.72;30.25;97901.59;4999241;28;1915;-80
2022/08/29 10:56:21;;;;;;;;;;;;;;;22.61;30.50;97899.13;4997826;28;879;-80
2022/08/29 10:58:50;;;;;;;;;;;;;;;22.60;30.54;97903.22;4998488;28;946;-80
2022/08/29 11:01:20;;;;;;;;;;;;;;;22.80;30.21;97895.25;4998988;28;1023;-80
2022/08/29 11:04:04;;;;;;;;;;;;;;;22.74;30.11;97891.41;4999209;28;837;-80
2022/08/29 11:06:31;;;;;;;;;;;;;;;22.83;29.75;97899.22;4998960;28;864;-80
2022/08/29 11:09:01;;;;;;;;;;;;;;;22.77;30.10;97896.16;4981037;28;929;-80
2022/08/29 11:11:27;;;;;;;;;;;;;;;22.64;29.95;97889.72;4980659;28;944;-80
2022/08/29 11:13:55;;;;;;;;;;;;;;;22.84;29.98;97876.06;4981240;28;1975;-80
2022/08/29 11:16:40;;;;;;;;;;;;;;;22.87;29.92;97889.34;4957331;28;1135;-80
2022/08/29 11:19:12;;;;;;;;;;;;;;;22.62;30.03;97878.03;4956968;28;1185;-80
2022/08/29 11:21:39;;;;;;;;;;;;;;;22.71;30.03;97886.63;4919516;29;923;-80
2022/08/29 11:24:04;;;;;;;;;;;;;;;22.67;29.92;97874.59;4919290;29;999;-80
2022/08/29 11:26:33;;;;;;;;;;;;;;;22.61;30.11;97876.44;4887464;29;1056;-80
2022/08/29 11:29:17;;;;;;;;;;;;;;;22.57;30.29;97875.75;4862796;29;1208;-80
2022/08/29 11:31:49;;;;;;;;;;;;;;;22.56;30.23;97868.50;4862924;29;959;-80
2022/08/29 11:34:20;;;;;;;;;;;;;;;22.72;30.11;97865.53;4863003;29;1923;-80
2022/08/29 11:36:48;;;;;;;;;;;;;;;22.76;29.78;97859.75;4862917;29;1125;-79
2022/08/29 11:39:18;;;;;;;;;;;;;;;22.86;29.77;97870.72;4862756;29;953;-80
2022/08/29 11:41:44;;;;;;;;;;;;;;;22.68;30.04;97867.69;4878308;29;1249;-80
2022/08/29 11:44:10;;;;;;;;;;;;;;;22.71;29.92;97868.81;4878474;29;939;-80
2022/08/29 11:46:37;;;;;;;;;;;;;;;22.39;30.63;97869.88;4866352;29;947;-80
2022/08/29 11:49:19;;;;;;;;;;;;;;;22.48;30.56;97872.81;4881176;29;985;-80
2022/08/29 11:51:44;;;;;;;;;;;;;;;22.71;29.92;97869.63;4869940;29;991;-80
2022/08/29 11:54:25;;;;;;;;;;;;;;;22.59;30.16;97862.72;4937520;29;1914;-80
2022/08/29 11:56:59;;;;;;;;;;;;;;;22.68;30.25;97864.84;4937921;29;967;-80
2022/08/29 11:59:43;;;;;;;;;;;;;;;22.69;29.98;97860.78;4927223;29;1213;-80
2022/08/29 12:02:09;;;;;;;;;;;;;;;22.74;29.96;97856.56;4899761;29;1042;-81
2022/08/29 12:04:53;;;;;;;;;;;;;;;22.56;30.25;97863.63;4899850;29;1005;-80
2022/08/29 12:07:19;;;;;;;;;;;;;;;22.69;30.06;97860.78;4862215;29;1008;-80
2022/08/29 12:09:49;;;;;;;;;;;;;;;22.40;30.50;97862.97;4877925;29;1227;-80
2022/08/29 12:12:18;;;;;;;;;;;;;;;22.73;29.93;97866.31;4825238;29;1052;-80
2022/08/29 12:14:44;;;;;;;;;;;;;;;22.66;29.89;97850.34;4807142;29;1988;-80
2022/08/29 12:17:30;;;;;;;;;;;;;;;22.81;29.44;97851.44;4789276;30;1019;-80
2022/08/29 12:19:55;;;;;;;;;;;;;;;22.72;30.02;97854.19;4781390;29;990;-81
2022/08/29 12:22:39;;;;;;;;;;;;;;;22.70;29.87;97856.69;4777261;29;1425;-80
2022/08/29 12:25:23;;;;;;;;;;;;;;;22.73;29.84;97863.47;4789080;30;914;-80
2022/08/29 12:27:54;;;;;;;;;;;;;;;22.65;29.78;97862.94;4804260;29;999;-80
2022/08/29 12:30:20;;;;;;;;;;;;;;;22.83;29.83;97859.50;4788882;30;970;-80
2022/08/29 12:32:48;;;;;;;;;;;;;;;22.91;29.39;97854.41;4754365;30;1963;-80
2022/08/29 12:35:14;;;;;;;;;;;;;;;22.73;29.91;97861.44;4788983;30;964;-80
2022/08/29 12:37:48;;;;;;;;;;;;;;;22.70;29.73;97850.22;4801881;29;1007;-80
2022/08/29 12:40:27;;;;;;;;;;;;;;;22.73;29.86;97847.25;4843571;29;1152;-80
2022/08/29 12:43:11;;;;;;;;;;;;;;;22.72;29.58;97854.19;4853449;29;1069;-80
2022/08/29 12:45:37;;;;;;;;;;;;;;;22.56;29.87;97848.66;4896192;29;908;-80
2022/08/29 12:48:06;;;;;;;;;;;;;;;22.55;30.02;97844.22;4905711;29;1392;-81
2022/08/29 12:50:36;;;;;;;;;;;;;;;22.79;29.43;97845.41;4954109;28;990;-80
2022/08/29 12:53:05;;;;;;;;;;;;;;;22.85;29.62;97846.44;4975352;28;1904;-80
2022/08/29 12:55:42;;;;;;;;;;;;;;;22.66;29.63;97849.56;4975331;28;947;-80
2022/08/29 12:58:07;;;;;;;;;;;;;;;22.82;29.70;97850.19;4975409;28;1149;-80
2022/08/29 13:00:33;;;;;;;;;;;;;;;22.62;29.93;97839.09;4987688;28;1219;-80
2022/08/29 13:03:03;;;;;;;;;;;;;;;22.58;29.75;97849.75;4994815;28;1006;-81
2022/08/29 13:05:29;;;;;;;;;;;;;;;22.61;29.88;97848.06;4995480;28;1010;-81
2022/08/29 13:08:06;;;;;;;;;;;;;;;22.63;29.75;97845.56;4995171;28;946;-80
2022/08/29 13:10:35;;;;;;;;;;;;;;;22.75;29.78;97846.81;4994724;28;1197;-80